sensor_id;sensor_type;location;lat;lon;timestamp;P1;durP1;ratioP1;P2;durP2;ratioP2
5821;SDS011;2937;48.562;8.022;2022-07-29T00:03:12;10.80;;;9.43;;
5821;SDS011;2937;48.562;8.022;2022-07-29T00:08:06;12.70;;;9.70;;
5821;SDS011;2937;48.562;8.022;2022-07-29T00:13:02;12.63;;;9.57;;
5821;SDS011;2937;48.562;8.022;2022-07-29T00:17:55;10.60;;;9.30;;
5821;SDS011;2937;48.562;8.022;2022-07-29T00:22:47;11.53;;;9.50;;
5821;SDS011;2937;48.562;8.022;2022-07-29T00:27:41;11.90;;;10.10;;
5821;SDS011;2937;48.562;8.022;2022-07-29T00:32:34;11.83;;;9.20;;
5821;SDS011;2937;48.562;8.022;2022-07-29T00:37:26;12.13;;;9.50;;
5821;SDS011;2937;48.562;8.022;2022-07-29T00:42:19;13.17;;;10.03;;
5821;SDS011;2937;48.562;8.022;2022-07-29T00:47:13;11.93;;;9.93;;
5821;SDS011;2937;48.562;8.022;2022-07-29T00:52:06;15.37;;;10.10;;
5821;SDS011;2937;48.562;8.022;2022-07-29T00:56:59;16.50;;;10.13;;
5821;SDS011;2937;48.562;8.022;2022-07-29T01:01:52;12.70;;;10.70;;
5821;SDS011;2937;48.562;8.022;2022-07-29T01:06:46;12.17;;;10.00;;
5821;SDS011;2937;48.562;8.022;2022-07-29T01:11:39;14.87;;;11.40;;
5821;SDS011;2937;48.562;8.022;2022-07-29T01:16:32;13.60;;;10.97;;
5821;SDS011;2937;48.562;8.022;2022-07-29T01:21:34;12.53;;;9.50;;
5821;SDS011;2937;48.562;8.022;2022-07-29T01:26:37;14.57;;;10.73;;
5821;SDS011;2937;48.562;8.022;2022-07-29T01:31:38;12.63;;;10.97;;
5821;SDS011;2937;48.562;8.022;2022-07-29T01:36:53;12.00;;;10.10;;
5821;SDS011;2937;48.562;8.022;2022-07-29T01:41:49;13.30;;;11.17;;
5821;SDS011;2937;48.562;8.022;2022-07-29T01:46:45;14.70;;;12.10;;
5821;SDS011;2937;48.562;8.022;2022-07-29T01:51:41;12.03;;;10.63;;
5821;SDS011;2937;48.562;8.022;2022-07-29T01:56:36;13.67;;;10.90;;
5821;SDS011;2937;48.562;8.022;2022-07-29T02:01:30;14.17;;;11.70;;
5821;SDS011;2937;48.562;8.022;2022-07-29T02:06:24;14.23;;;11.23;;
5821;SDS011;2937;48.562;8.022;2022-07-29T02:11:18;13.63;;;11.27;;
5821;SDS011;2937;48.562;8.022;2022-07-29T02:16:10;15.90;;;13.00;;
5821;SDS011;2937;48.562;8.022;2022-07-29T02:21:04;14.53;;;12.27;;
5821;SDS011;2937;48.562;8.022;2022-07-29T02:26:06;14.57;;;11.63;;
5821;SDS011;2937;48.562;8.022;2022-07-29T02:31:00;15.37;;;11.80;;
5821;SDS011;2937;48.562;8.022;2022-07-29T02:35:54;16.00;;;13.23;;
5821;SDS011;2937;48.562;8.022;2022-07-29T02:40:47;16.17;;;13.80;;
5821;SDS011;2937;48.562;8.022;2022-07-29T02:45:41;16.13;;;14.20;;
5821;SDS011;2937;48.562;8.022;2022-07-29T02:50:36;16.03;;;14.23;;
5821;SDS011;2937;48.562;8.022;2022-07-29T02:55:32;16.87;;;13.50;;
5821;SDS011;2937;48.562;8.022;2022-07-29T03:00:26;16.23;;;14.13;;
5821;SDS011;2937;48.562;8.022;2022-07-29T03:05:21;18.37;;;15.17;;
5821;SDS011;2937;48.562;8.022;2022-07-29T03:10:14;18.23;;;15.33;;
5821;SDS011;2937;48.562;8.022;2022-07-29T03:15:07;19.57;;;16.20;;
5821;SDS011;2937;48.562;8.022;2022-07-29T03:20:01;18.77;;;16.40;;
5821;SDS011;2937;48.562;8.022;2022-07-29T03:24:54;19.20;;;15.23;;
5821;SDS011;2937;48.562;8.022;2022-07-29T03:29:47;20.50;;;15.80;;
5821;SDS011;2937;48.562;8.022;2022-07-29T03:34:41;16.53;;;14.73;;
5821;SDS011;2937;48.562;8.022;2022-07-29T03:39:35;19.53;;;15.90;;
5821;SDS011;2937;48.562;8.022;2022-07-29T03:44:30;20.30;;;16.27;;
5821;SDS011;2937;48.562;8.022;2022-07-29T03:49:23;19.60;;;15.87;;
5821;SDS011;2937;48.562;8.022;2022-07-29T03:54:16;19.83;;;16.70;;
5821;SDS011;2937;48.562;8.022;2022-07-29T03:59:09;23.57;;;16.37;;
5821;SDS011;2937;48.562;8.022;2022-07-29T04:04:04;19.23;;;14.50;;
5821;SDS011;2937;48.562;8.022;2022-07-29T04:08:56;14.20;;;12.30;;
5821;SDS011;2937;48.562;8.022;2022-07-29T04:13:49;15.03;;;11.60;;
5821;SDS011;2937;48.562;8.022;2022-07-29T04:18:42;15.40;;;11.57;;
5821;SDS011;2937;48.562;8.022;2022-07-29T04:23:35;14.20;;;11.83;;
5821;SDS011;2937;48.562;8.022;2022-07-29T04:28:43;13.03;;;10.80;;
5821;SDS011;2937;48.562;8.022;2022-07-29T04:33:36;11.33;;;9.77;;
5821;SDS011;2937;48.562;8.022;2022-07-29T04:38:28;14.97;;;10.83;;
5821;SDS011;2937;48.562;8.022;2022-07-29T04:43:22;12.50;;;10.13;;
5821;SDS011;2937;48.562;8.022;2022-07-29T04:48:15;15.37;;;9.47;;
5821;SDS011;2937;48.562;8.022;2022-07-29T04:53:08;15.13;;;10.03;;
5821;SDS011;2937;48.562;8.022;2022-07-29T04:58:00;13.17;;;9.57;;
5821;SDS011;2937;48.562;8.022;2022-07-29T05:02:54;11.90;;;10.03;;
5821;SDS011;2937;48.562;8.022;2022-07-29T05:07:47;13.00;;;8.70;;
5821;SDS011;2937;48.562;8.022;2022-07-29T05:12:39;16.83;;;9.90;;
5821;SDS011;2937;48.562;8.022;2022-07-29T05:17:32;14.47;;;11.30;;
5821;SDS011;2937;48.562;8.022;2022-07-29T05:22:26;14.43;;;11.50;;
5821;SDS011;2937;48.562;8.022;2022-07-29T05:27:18;14.23;;;10.87;;
5821;SDS011;2937;48.562;8.022;2022-07-29T05:32:11;16.30;;;11.20;;
5821;SDS011;2937;48.562;8.022;2022-07-29T05:37:04;14.40;;;11.83;;
5821;SDS011;2937;48.562;8.022;2022-07-29T05:41:57;15.03;;;12.67;;
5821;SDS011;2937;48.562;8.022;2022-07-29T05:46:50;13.90;;;11.50;;
5821;SDS011;2937;48.562;8.022;2022-07-29T05:51:43;16.37;;;11.73;;
5821;SDS011;2937;48.562;8.022;2022-07-29T05:56:35;17.27;;;11.90;;
5821;SDS011;2937;48.562;8.022;2022-07-29T06:01:29;13.90;;;11.17;;
5821;SDS011;2937;48.562;8.022;2022-07-29T06:06:22;14.80;;;10.93;;
5821;SDS011;2937;48.562;8.022;2022-07-29T06:11:15;13.67;;;10.93;;
5821;SDS011;2937;48.562;8.022;2022-07-29T06:16:07;11.10;;;10.00;;
5821;SDS011;2937;48.562;8.022;2022-07-29T06:21:08;12.87;;;9.80;;
5821;SDS011;2937;48.562;8.022;2022-07-29T06:26:01;10.60;;;9.10;;
5821;SDS011;2937;48.562;8.022;2022-07-29T06:30:54;11.80;;;9.73;;
5821;SDS011;2937;48.562;8.022;2022-07-29T06:35:47;19.73;;;9.07;;
5821;SDS011;2937;48.562;8.022;2022-07-29T06:40:46;12.73;;;9.13;;
5821;SDS011;2937;48.562;8.022;2022-07-29T06:45:55;11.50;;;9.40;;
5821;SDS011;2937;48.562;8.022;2022-07-29T06:50:47;12.13;;;9.33;;
5821;SDS011;2937;48.562;8.022;2022-07-29T06:55:40;10.80;;;9.00;;
5821;SDS011;2937;48.562;8.022;2022-07-29T07:00:34;10.90;;;8.50;;
5821;SDS011;2937;48.562;8.022;2022-07-29T07:05:27;11.13;;;8.90;;
5821;SDS011;2937;48.562;8.022;2022-07-29T07:10:19;9.30;;;7.87;;
5821;SDS011;2937;48.562;8.022;2022-07-29T07:15:14;10.33;;;9.20;;
5821;SDS011;2937;48.562;8.022;2022-07-29T07:20:08;17.83;;;8.73;;
5821;SDS011;2937;48.562;8.022;2022-07-29T07:25:01;15.90;;;8.33;;
5821;SDS011;2937;48.562;8.022;2022-07-29T07:29:53;9.57;;;8.50;;
5821;SDS011;2937;48.562;8.022;2022-07-29T07:34:46;9.53;;;8.50;;
5821;SDS011;2937;48.562;8.022;2022-07-29T07:39:40;14.03;;;8.83;;
5821;SDS011;2937;48.562;8.022;2022-07-29T07:44:32;12.57;;;8.60;;
5821;SDS011;2937;48.562;8.022;2022-07-29T07:49:45;13.00;;;9.23;;
5821;SDS011;2937;48.562;8.022;2022-07-29T07:54:37;11.77;;;8.10;;
5821;SDS011;2937;48.562;8.022;2022-07-29T07:59:31;11.10;;;7.87;;
5821;SDS011;2937;48.562;8.022;2022-07-29T08:04:24;11.87;;;7.77;;
5821;SDS011;2937;48.562;8.022;2022-07-29T08:09:19;9.77;;;7.77;;
5821;SDS011;2937;48.562;8.022;2022-07-29T08:14:20;9.40;;;8.03;;
5821;SDS011;2937;48.562;8.022;2022-07-29T08:19:14;11.53;;;7.87;;
5821;SDS011;2937;48.562;8.022;2022-07-29T08:24:06;9.23;;;6.60;;
5821;SDS011;2937;48.562;8.022;2022-07-29T08:29:16;9.37;;;6.20;;
5821;SDS011;2937;48.562;8.022;2022-07-29T08:34:10;12.50;;;6.20;;
5821;SDS011;2937;48.562;8.022;2022-07-29T08:39:04;7.40;;;5.97;;
5821;SDS011;2937;48.562;8.022;2022-07-29T08:43:57;7.63;;;6.17;;
5821;SDS011;2937;48.562;8.022;2022-07-29T08:48:49;7.70;;;5.67;;
5821;SDS011;2937;48.562;8.022;2022-07-29T08:53:43;6.40;;;5.77;;
5821;SDS011;2937;48.562;8.022;2022-07-29T08:58:37;8.20;;;6.67;;
5821;SDS011;2937;48.562;8.022;2022-07-29T09:03:30;8.47;;;6.77;;
5821;SDS011;2937;48.562;8.022;2022-07-29T09:08:23;10.13;;;6.40;;
5821;SDS011;2937;48.562;8.022;2022-07-29T09:13:16;9.90;;;5.90;;
5821;SDS011;2937;48.562;8.022;2022-07-29T09:18:10;6.57;;;5.63;;
5821;SDS011;2937;48.562;8.022;2022-07-29T09:23:22;9.50;;;5.47;;
5821;SDS011;2937;48.562;8.022;2022-07-29T09:28:16;8.60;;;5.80;;
5821;SDS011;2937;48.562;8.022;2022-07-29T09:33:10;8.97;;;6.10;;
5821;SDS011;2937;48.562;8.022;2022-07-29T09:38:09;15.83;;;6.77;;
5821;SDS011;2937;48.562;8.022;2022-07-29T09:43:08;9.77;;;6.10;;
5821;SDS011;2937;48.562;8.022;2022-07-29T09:48:12;7.70;;;6.13;;
5821;SDS011;2937;48.562;8.022;2022-07-29T09:53:06;8.90;;;5.90;;
5821;SDS011;2937;48.562;8.022;2022-07-29T09:58:16;8.53;;;6.30;;
5821;SDS011;2937;48.562;8.022;2022-07-29T10:03:09;7.10;;;5.80;;
5821;SDS011;2937;48.562;8.022;2022-07-29T10:08:04;10.27;;;6.10;;
5821;SDS011;2937;48.562;8.022;2022-07-29T10:12:59;8.70;;;5.60;;
5821;SDS011;2937;48.562;8.022;2022-07-29T10:17:58;8.67;;;5.63;;
5821;SDS011;2937;48.562;8.022;2022-07-29T10:22:51;7.10;;;5.90;;
5821;SDS011;2937;48.562;8.022;2022-07-29T10:27:45;6.40;;;5.70;;
5821;SDS011;2937;48.562;8.022;2022-07-29T10:32:42;7.50;;;5.30;;
5821;SDS011;2937;48.562;8.022;2022-07-29T10:37:52;8.30;;;5.17;;
5821;SDS011;2937;48.562;8.022;2022-07-29T10:42:49;5.93;;;4.97;;
5821;SDS011;2937;48.562;8.022;2022-07-29T10:47:44;7.07;;;5.40;;
5821;SDS011;2937;48.562;8.022;2022-07-29T10:52:51;6.90;;;5.50;;
5821;SDS011;2937;48.562;8.022;2022-07-29T10:57:47;8.07;;;6.00;;
5821;SDS011;2937;48.562;8.022;2022-07-29T11:03:02;7.13;;;5.60;;
5821;SDS011;2937;48.562;8.022;2022-07-29T11:08:16;9.33;;;6.40;;
5821;SDS011;2937;48.562;8.022;2022-07-29T11:13:11;7.03;;;6.20;;
5821;SDS011;2937;48.562;8.022;2022-07-29T11:18:06;12.27;;;5.80;;
5821;SDS011;2937;48.562;8.022;2022-07-29T11:23:17;13.60;;;6.30;;
5821;SDS011;2937;48.562;8.022;2022-07-29T11:28:13;7.97;;;5.83;;
5821;SDS011;2937;48.562;8.022;2022-07-29T11:33:29;6.20;;;5.60;;
5821;SDS011;2937;48.562;8.022;2022-07-29T11:38:42;11.27;;;6.30;;
5821;SDS011;2937;48.562;8.022;2022-07-29T11:43:48;14.70;;;6.23;;
5821;SDS011;2937;48.562;8.022;2022-07-29T11:48:43;7.57;;;5.73;;
5821;SDS011;2937;48.562;8.022;2022-07-29T11:53:46;8.33;;;6.50;;
5821;SDS011;2937;48.562;8.022;2022-07-29T11:58:42;7.20;;;6.20;;
5821;SDS011;2937;48.562;8.022;2022-07-29T12:03:35;6.70;;;6.00;;
5821;SDS011;2937;48.562;8.022;2022-07-29T12:08:30;9.07;;;5.70;;
5821;SDS011;2937;48.562;8.022;2022-07-29T12:13:34;8.90;;;6.43;;
5821;SDS011;2937;48.562;8.022;2022-07-29T12:18:30;9.50;;;6.20;;
5821;SDS011;2937;48.562;8.022;2022-07-29T12:23:23;8.37;;;6.47;;
5821;SDS011;2937;48.562;8.022;2022-07-29T12:28:21;9.10;;;5.93;;
5821;SDS011;2937;48.562;8.022;2022-07-29T12:33:19;6.97;;;5.57;;
5821;SDS011;2937;48.562;8.022;2022-07-29T12:38:12;8.70;;;6.27;;
5821;SDS011;2937;48.562;8.022;2022-07-29T12:43:06;6.80;;;5.80;;
5821;SDS011;2937;48.562;8.022;2022-07-29T12:48:01;8.67;;;5.50;;
5821;SDS011;2937;48.562;8.022;2022-07-29T12:53:03;9.47;;;5.40;;
5821;SDS011;2937;48.562;8.022;2022-07-29T12:58:00;6.60;;;5.53;;
5821;SDS011;2937;48.562;8.022;2022-07-29T13:02:54;10.77;;;5.53;;
5821;SDS011;2937;48.562;8.022;2022-07-29T13:07:48;5.90;;;4.97;;
5821;SDS011;2937;48.562;8.022;2022-07-29T13:13:06;5.90;;;5.13;;
5821;SDS011;2937;48.562;8.022;2022-07-29T13:18:00;6.70;;;5.57;;
5821;SDS011;2937;48.562;8.022;2022-07-29T13:22:55;8.70;;;5.43;;
5821;SDS011;2937;48.562;8.022;2022-07-29T13:27:47;8.07;;;5.53;;
5821;SDS011;2937;48.562;8.022;2022-07-29T13:32:43;7.27;;;4.80;;
5821;SDS011;2937;48.562;8.022;2022-07-29T13:37:37;6.33;;;4.83;;
5821;SDS011;2937;48.562;8.022;2022-07-29T13:42:31;6.57;;;4.87;;
5821;SDS011;2937;48.562;8.022;2022-07-29T13:47:24;11.50;;;5.40;;
5821;SDS011;2937;48.562;8.022;2022-07-29T13:52:23;6.60;;;4.50;;
5821;SDS011;2937;48.562;8.022;2022-07-29T13:57:16;7.00;;;5.03;;
5821;SDS011;2937;48.562;8.022;2022-07-29T14:02:10;7.10;;;5.30;;
5821;SDS011;2937;48.562;8.022;2022-07-29T14:07:06;9.17;;;5.30;;
5821;SDS011;2937;48.562;8.022;2022-07-29T14:11:58;13.93;;;6.40;;
5821;SDS011;2937;48.562;8.022;2022-07-29T14:16:52;9.80;;;5.40;;
5821;SDS011;2937;48.562;8.022;2022-07-29T14:21:46;14.70;;;5.07;;
5821;SDS011;2937;48.562;8.022;2022-07-29T14:26:40;11.00;;;4.63;;
5821;SDS011;2937;48.562;8.022;2022-07-29T14:31:36;8.83;;;4.53;;
5821;SDS011;2937;48.562;8.022;2022-07-29T14:36:29;6.50;;;4.00;;
5821;SDS011;2937;48.562;8.022;2022-07-29T14:41:23;7.33;;;4.60;;
5821;SDS011;2937;48.562;8.022;2022-07-29T14:46:16;5.27;;;4.20;;
5821;SDS011;2937;48.562;8.022;2022-07-29T14:51:09;9.60;;;4.10;;
5821;SDS011;2937;48.562;8.022;2022-07-29T14:56:01;4.80;;;3.50;;
5821;SDS011;2937;48.562;8.022;2022-07-29T15:01:15;7.17;;;4.50;;
5821;SDS011;2937;48.562;8.022;2022-07-29T15:06:08;4.33;;;3.70;;
5821;SDS011;2937;48.562;8.022;2022-07-29T15:11:00;6.43;;;3.70;;
5821;SDS011;2937;48.562;8.022;2022-07-29T15:15:53;7.10;;;3.83;;
5821;SDS011;2937;48.562;8.022;2022-07-29T15:20:51;5.93;;;4.10;;
5821;SDS011;2937;48.562;8.022;2022-07-29T15:25:44;7.13;;;4.30;;
5821;SDS011;2937;48.562;8.022;2022-07-29T15:30:36;4.80;;;3.90;;
5821;SDS011;2937;48.562;8.022;2022-07-29T15:35:32;5.60;;;4.10;;
5821;SDS011;2937;48.562;8.022;2022-07-29T15:40:32;7.63;;;3.97;;
5821;SDS011;2937;48.562;8.022;2022-07-29T15:45:24;6.50;;;3.70;;
5821;SDS011;2937;48.562;8.022;2022-07-29T15:50:22;5.77;;;3.50;;
5821;SDS011;2937;48.562;8.022;2022-07-29T15:55:15;6.43;;;4.00;;
5821;SDS011;2937;48.562;8.022;2022-07-29T16:00:11;7.73;;;4.13;;
5821;SDS011;2937;48.562;8.022;2022-07-29T16:05:04;4.50;;;3.90;;
5821;SDS011;2937;48.562;8.022;2022-07-29T16:10:00;11.07;;;5.30;;
5821;SDS011;2937;48.562;8.022;2022-07-29T16:14:52;8.03;;;4.53;;
5821;SDS011;2937;48.562;8.022;2022-07-29T16:19:46;9.63;;;4.30;;
5821;SDS011;2937;48.562;8.022;2022-07-29T16:24:39;10.90;;;4.20;;
5821;SDS011;2937;48.562;8.022;2022-07-29T16:29:32;10.33;;;4.23;;
5821;SDS011;2937;48.562;8.022;2022-07-29T16:34:24;7.47;;;4.57;;
5821;SDS011;2937;48.562;8.022;2022-07-29T16:39:18;5.50;;;4.00;;
5821;SDS011;2937;48.562;8.022;2022-07-29T16:44:11;5.63;;;3.93;;
5821;SDS011;2937;48.562;8.022;2022-07-29T16:49:03;4.93;;;4.10;;
5821;SDS011;2937;48.562;8.022;2022-07-29T16:53:56;6.70;;;3.80;;
5821;SDS011;2937;48.562;8.022;2022-07-29T16:58:50;4.40;;;3.70;;
5821;SDS011;2937;48.562;8.022;2022-07-29T17:03:42;6.40;;;3.27;;
5821;SDS011;2937;48.562;8.022;2022-07-29T17:08:51;8.00;;;3.60;;
5821;SDS011;2937;48.562;8.022;2022-07-29T17:13:43;7.73;;;3.83;;
5821;SDS011;2937;48.562;8.022;2022-07-29T17:18:37;5.97;;;3.73;;
5821;SDS011;2937;48.562;8.022;2022-07-29T17:23:29;5.13;;;3.83;;
5821;SDS011;2937;48.562;8.022;2022-07-29T17:28:22;6.97;;;4.23;;
5821;SDS011;2937;48.562;8.022;2022-07-29T17:33:14;11.30;;;4.07;;
5821;SDS011;2937;48.562;8.022;2022-07-29T17:38:08;12.40;;;4.70;;
5821;SDS011;2937;48.562;8.022;2022-07-29T17:43:01;5.97;;;4.27;;
5821;SDS011;2937;48.562;8.022;2022-07-29T17:47:54;5.73;;;4.23;;
5821;SDS011;2937;48.562;8.022;2022-07-29T17:52:47;5.30;;;4.50;;
5821;SDS011;2937;48.562;8.022;2022-07-29T17:57:41;7.10;;;4.50;;
5821;SDS011;2937;48.562;8.022;2022-07-29T18:02:33;5.30;;;4.47;;
5821;SDS011;2937;48.562;8.022;2022-07-29T18:07:28;17.57;;;5.13;;
5821;SDS011;2937;48.562;8.022;2022-07-29T18:12:20;8.27;;;4.30;;
5821;SDS011;2937;48.562;8.022;2022-07-29T18:17:14;6.33;;;4.47;;
5821;SDS011;2937;48.562;8.022;2022-07-29T18:22:06;9.50;;;4.40;;
5821;SDS011;2937;48.562;8.022;2022-07-29T18:27:01;5.47;;;3.77;;
5821;SDS011;2937;48.562;8.022;2022-07-29T18:31:54;6.50;;;3.80;;
5821;SDS011;2937;48.562;8.022;2022-07-29T18:36:47;6.63;;;4.30;;
5821;SDS011;2937;48.562;8.022;2022-07-29T18:41:40;8.13;;;4.00;;
5821;SDS011;2937;48.562;8.022;2022-07-29T18:46:41;10.90;;;3.80;;
5821;SDS011;2937;48.562;8.022;2022-07-29T18:51:38;6.90;;;3.73;;
5821;SDS011;2937;48.562;8.022;2022-07-29T18:56:32;14.60;;;4.00;;
5821;SDS011;2937;48.562;8.022;2022-07-29T19:01:24;5.93;;;3.37;;
5821;SDS011;2937;48.562;8.022;2022-07-29T19:06:22;4.83;;;3.70;;
5821;SDS011;2937;48.562;8.022;2022-07-29T19:11:16;5.80;;;4.00;;
5821;SDS011;2937;48.562;8.022;2022-07-29T19:16:10;9.43;;;3.97;;
5821;SDS011;2937;48.562;8.022;2022-07-29T19:21:04;6.67;;;4.00;;
5821;SDS011;2937;48.562;8.022;2022-07-29T19:25:57;8.50;;;4.17;;
5821;SDS011;2937;48.562;8.022;2022-07-29T19:30:50;4.87;;;4.03;;
5821;SDS011;2937;48.562;8.022;2022-07-29T19:35:44;6.50;;;4.00;;
5821;SDS011;2937;48.562;8.022;2022-07-29T19:40:41;6.30;;;4.83;;
5821;SDS011;2937;48.562;8.022;2022-07-29T19:45:34;6.10;;;4.23;;
5821;SDS011;2937;48.562;8.022;2022-07-29T19:50:26;6.37;;;4.40;;
5821;SDS011;2937;48.562;8.022;2022-07-29T19:55:20;8.80;;;4.70;;
5821;SDS011;2937;48.562;8.022;2022-07-29T20:00:13;7.53;;;4.80;;
5821;SDS011;2937;48.562;8.022;2022-07-29T20:05:07;6.23;;;4.40;;
5821;SDS011;2937;48.562;8.022;2022-07-29T20:10:00;7.00;;;4.87;;
5821;SDS011;2937;48.562;8.022;2022-07-29T20:14:54;7.87;;;4.70;;
5821;SDS011;2937;48.562;8.022;2022-07-29T20:19:46;7.20;;;4.70;;
5821;SDS011;2937;48.562;8.022;2022-07-29T20:24:39;7.27;;;5.17;;
5821;SDS011;2937;48.562;8.022;2022-07-29T20:29:34;9.20;;;4.90;;
5821;SDS011;2937;48.562;8.022;2022-07-29T20:34:28;10.20;;;4.90;;
5821;SDS011;2937;48.562;8.022;2022-07-29T20:39:21;6.80;;;4.50;;
5821;SDS011;2937;48.562;8.022;2022-07-29T20:44:14;7.30;;;4.70;;
5821;SDS011;2937;48.562;8.022;2022-07-29T20:49:06;5.60;;;4.23;;
5821;SDS011;2937;48.562;8.022;2022-07-29T20:54:00;5.10;;;3.87;;
5821;SDS011;2937;48.562;8.022;2022-07-29T20:58:53;6.07;;;4.40;;
5821;SDS011;2937;48.562;8.022;2022-07-29T21:03:46;5.57;;;4.60;;
5821;SDS011;2937;48.562;8.022;2022-07-29T21:08:38;6.50;;;4.80;;
5821;SDS011;2937;48.562;8.022;2022-07-29T21:13:32;7.70;;;4.70;;
5821;SDS011;2937;48.562;8.022;2022-07-29T21:18:28;5.80;;;4.33;;
5821;SDS011;2937;48.562;8.022;2022-07-29T21:23:23;7.00;;;4.50;;
5821;SDS011;2937;48.562;8.022;2022-07-29T21:28:16;6.30;;;4.63;;
5821;SDS011;2937;48.562;8.022;2022-07-29T21:33:20;5.80;;;3.90;;
5821;SDS011;2937;48.562;8.022;2022-07-29T21:38:13;9.30;;;4.20;;
5821;SDS011;2937;48.562;8.022;2022-07-29T21:43:07;8.70;;;4.07;;
5821;SDS011;2937;48.562;8.022;2022-07-29T21:47:59;5.00;;;3.73;;
5821;SDS011;2937;48.562;8.022;2022-07-29T21:52:53;7.60;;;3.60;;
5821;SDS011;2937;48.562;8.022;2022-07-29T21:57:46;5.53;;;4.10;;
5821;SDS011;2937;48.562;8.022;2022-07-29T22:02:38;5.20;;;3.53;;
5821;SDS011;2937;48.562;8.022;2022-07-29T22:07:31;6.17;;;3.90;;
5821;SDS011;2937;48.562;8.022;2022-07-29T22:12:45;5.10;;;3.60;;
5821;SDS011;2937;48.562;8.022;2022-07-29T22:17:37;7.30;;;3.73;;
5821;SDS011;2937;48.562;8.022;2022-07-29T22:22:30;4.83;;;3.80;;
5821;SDS011;2937;48.562;8.022;2022-07-29T22:27:23;6.00;;;3.90;;
5821;SDS011;2937;48.562;8.022;2022-07-29T22:32:17;5.47;;;4.37;;
5821;SDS011;2937;48.562;8.022;2022-07-29T22:37:09;13.73;;;8.50;;
5821;SDS011;2937;48.562;8.022;2022-07-29T22:42:02;9.53;;;4.80;;
5821;SDS011;2937;48.562;8.022;2022-07-29T22:46:55;7.80;;;4.50;;
5821;SDS011;2937;48.562;8.022;2022-07-29T22:51:49;7.07;;;4.50;;
5821;SDS011;2937;48.562;8.022;2022-07-29T22:56:41;6.27;;;4.70;;
5821;SDS011;2937;48.562;8.022;2022-07-29T23:01:34;6.77;;;4.90;;
5821;SDS011;2937;48.562;8.022;2022-07-29T23:06:28;7.00;;;4.80;;
5821;SDS011;2937;48.562;8.022;2022-07-29T23:11:22;10.60;;;4.90;;
5821;SDS011;2937;48.562;8.022;2022-07-29T23:16:14;6.83;;;4.90;;
5821;SDS011;2937;48.562;8.022;2022-07-29T23:21:16;7.53;;;5.20;;
5821;SDS011;2937;48.562;8.022;2022-07-29T23:26:11;5.93;;;4.50;;
5821;SDS011;2937;48.562;8.022;2022-07-29T23:31:08;9.20;;;5.80;;
5821;SDS011;2937;48.562;8.022;2022-07-29T23:36:01;9.90;;;5.40;;
5821;SDS011;2937;48.562;8.022;2022-07-29T23:40:53;8.00;;;6.27;;
5821;SDS011;2937;48.562;8.022;2022-07-29T23:45:46;9.60;;;7.13;;
5821;SDS011;2937;48.562;8.022;2022-07-29T23:50:40;13.93;;;7.20;;
5821;SDS011;2937;48.562;8.022;2022-07-29T23:55:33;9.70;;;7.97;;
